Time;durP1;ratioP1;P1;durP2;ratioP2;P2;SDS_P1;SDS_P2;PMS_P1;PMS_P2;Temp;Humidity;BMP_temperature;BMP_pressure;BME280_temperature;BME280_humidity;BME280_pressure;Samples;Min_cycle;Max_cycle;Signal;HPM_P1;HPM_P2
2021/12/02 00:00:34;;;;;;;1.98;0.85;;;14.90;71.10;;;;;;4171409;28;20416;-75
2021/12/02 00:02:57;;;;;;;7.90;1.10;;;14.90;70.90;;;;;;4179317;28;20056;-74
2021/12/02 00:05:19;;;;;;;6.55;1.55;;;14.90;71.30;;;;;;4176680;28;20057;-74
2021/12/02 00:07:43;;;;;;;6.72;1.45;;;14.90;71.00;;;;;;4177256;28;20044;-74
2021/12/02 00:10:06;;;;;;;6.55;1.42;;;14.90;71.80;;;;;;4188312;28;20044;-74
2021/12/02 00:12:29;;;;;;;6.97;1.20;;;14.90;71.80;;;;;;4193039;28;20521;-74
2021/12/02 00:14:52;;;;;;;9.38;1.75;;;14.90;71.90;;;;;;4192825;28;20048;-74
2021/12/02 00:17:20;;;;;;;7.30;1.40;;;14.80;71.30;;;;;;4193377;28;20488;-75
2021/12/02 00:22:26;;;;;;;8.48;1.27;;;14.80;71.80;;;;;;4193006;28;20053;-74
2021/12/02 00:24:55;;;;;;;2.67;1.02;;;14.80;71.90;;;;;;4187863;28;20060;-74
2021/12/02 00:27:19;;;;;;;7.90;1.17;;;14.80;71.70;;;;;;4185856;28;20139;-74
2021/12/02 00:29:46;;;;;;;3.15;1.10;;;14.80;72.50;;;;;;4182598;28;20053;-74
2021/12/02 00:32:10;;;;;;;4.55;1.00;;;14.70;73.90;;;;;;4161328;28;20049;-74
2021/12/02 00:34:33;;;;;;;3.90;0.80;;;14.70;73.00;;;;;;4176521;28;20045;-74
2021/12/02 00:36:57;;;;;;;4.35;0.82;;;14.70;73.30;;;;;;4176675;28;20180;-74
2021/12/02 00:39:21;;;;;;;3.55;0.52;;;14.70;73.10;;;;;;4176517;28;20098;-74
2021/12/02 00:41:46;;;;;;;7.68;1.30;;;14.70;73.10;;;;;;4177623;28;20473;-73
2021/12/02 00:44:09;;;;;;;6.68;0.98;;;14.70;73.00;;;;;;4176182;28;20462;-73
2021/12/02 00:46:33;;;;;;;3.80;1.23;;;14.60;72.80;;;;;;4175811;28;20049;-73
2021/12/02 00:48:57;;;;;;;9.60;2.05;;;14.70;74.30;;;;;;4180266;28;20048;-73
2021/12/02 00:51:21;;;;;;;2.47;0.70;;;14.70;75.40;;;;;;4177331;28;20041;-74
2021/12/02 00:53:48;;;;;;;11.02;1.20;;;14.80;75.60;;;;;;4192833;28;20045;-74
2021/12/02 00:56:16;;;;;;;4.05;1.67;;;14.90;75.30;;;;;;4192674;28;20044;-75
2021/12/02 00:58:40;;;;;;;6.75;1.67;;;14.90;75.50;;;;;;4163001;28;20508;-78
2021/12/02 01:01:03;;;;;;;1.55;0.70;;;15.00;75.10;;;;;;4161574;28;20175;-77
2021/12/02 01:03:27;;;;;;;4.95;0.90;;;15.00;74.90;;;;;;4159714;28;20053;-76
2021/12/02 01:05:51;;;;;;;6.45;1.48;;;15.10;74.70;;;;;;4159804;28;20060;-77
2021/12/02 01:08:13;;;;;;;6.22;1.65;;;15.10;74.40;;;;;;4155901;28;20057;-77
2021/12/02 01:10:36;;;;;;;6.10;1.13;;;15.10;74.30;;;;;;4176108;28;20206;-76
2021/12/02 01:12:58;;;;;;;4.63;1.17;;;15.10;74.10;;;;;;4175916;28;20068;-77
2021/12/02 01:15:22;;;;;;;6.28;1.00;;;15.10;74.30;;;;;;4164009;28;20122;-78
2021/12/02 01:17:45;;;;;;;5.18;1.10;;;15.10;74.40;;;;;;4166280;28;20049;-74
2021/12/02 01:20:08;;;;;;;4.30;1.33;;;15.10;74.40;;;;;;4175675;28;20052;-75
2021/12/02 01:22:33;;;;;;;3.55;1.10;;;15.10;74.40;;;;;;4175908;28;20052;-75
2021/12/02 01:24:57;;;;;;;4.60;1.00;;;15.10;74.60;;;;;;4160391;28;20053;-74
2021/12/02 01:27:22;;;;;;;6.30;1.48;;;15.10;74.30;;;;;;4172379;28;20068;-75
2021/12/02 01:29:45;;;;;;;4.38;1.02;;;15.10;74.50;;;;;;4159193;28;20076;-75
2021/12/02 01:32:11;;;;;;;7.88;1.42;;;15.00;75.40;;;;;;4160209;28;20087;-76
2021/12/02 01:34:34;;;;;;;7.38;1.42;;;15.10;75.60;;;;;;4159284;28;20489;-75
2021/12/02 01:36:56;;;;;;;6.07;1.40;;;15.20;75.80;;;;;;4172742;28;20051;-76
2021/12/02 01:39:19;;;;;;;5.20;1.42;;;15.20;75.60;;;;;;4175173;28;20044;-76
2021/12/02 01:41:47;;;;;;;2.95;0.80;;;15.20;75.50;;;;;;4175445;28;20053;-76
2021/12/02 01:44:12;;;;;;;4.65;1.08;;;15.30;75.30;;;;;;4174830;28;20455;-75
2021/12/02 01:46:38;;;;;;;7.03;1.42;;;15.40;75.20;;;;;;4164543;28;20045;-76
2021/12/02 01:49:05;;;;;;;2.67;0.93;;;15.40;74.90;;;;;;4159862;28;20497;-76
2021/12/02 01:51:29;;;;;;;2.35;0.63;;;15.40;74.40;;;;;;4158916;28;20059;-76
2021/12/02 01:53:58;;;;;;;5.45;1.25;;;15.40;74.70;;;;;;4158920;28;20049;-76
2021/12/02 01:56:21;;;;;;;5.00;0.95;;;15.30;74.60;;;;;;4151792;28;20524;-76
2021/12/02 01:58:46;;;;;;;4.45;0.85;;;15.30;74.60;;;;;;4174723;28;20041;-76
2021/12/02 02:01:14;;;;;;;4.47;1.20;;;15.30;74.50;;;;;;4190119;28;20435;-76
2021/12/02 02:03:37;;;;;;;1.95;0.73;;;15.30;74.70;;;;;;4191533;28;20060;-76
2021/12/02 02:06:05;;;;;;;3.75;0.95;;;15.30;75.10;;;;;;4177209;28;20048;-75
2021/12/02 02:08:30;;;;;;;3.85;1.55;;;15.30;75.10;;;;;;4175212;28;20045;-74
2021/12/02 02:10:53;;;;;;;3.50;0.88;;;15.30;75.00;;;;;;4175284;28;20057;-75
2021/12/02 02:13:17;;;;;;;3.17;0.60;;;15.40;74.90;;;;;;4175242;28;20471;-74
2021/12/02 02:15:46;;;;;;;6.10;1.35;;;15.40;74.70;;;;;;4177493;28;20103;-74
2021/12/02 02:18:13;;;;;;;4.35;1.50;;;15.40;74.40;;;;;;4191412;28;20396;-74
2021/12/02 02:20:41;;;;;;;3.22;0.60;;;15.40;74.40;;;;;;4174602;28;20504;-74
2021/12/02 02:23:05;;;;;;;3.03;0.80;;;15.40;74.40;;;;;;4191157;28;20064;-73
2021/12/02 02:25:27;;;;;;;3.30;0.77;;;15.40;74.70;;;;;;4191006;28;20048;-74
2021/12/02 02:27:49;;;;;;;4.07;0.88;;;15.40;74.70;;;;;;4174376;28;20404;-74
2021/12/02 02:30:12;;;;;;;4.68;0.65;;;15.40;74.60;;;;;;4174807;28;20507;-73
2021/12/02 02:32:35;;;;;;;3.47;0.70;;;15.40;74.70;;;;;;4174854;28;20045;-74
2021/12/02 02:34:57;;;;;;;1.95;0.70;;;15.40;74.80;;;;;;4175909;28;20084;-72
2021/12/02 02:37:21;;;;;;;2.72;0.55;;;15.50;74.80;;;;;;4190811;28;20415;-72
2021/12/02 02:39:44;;;;;;;3.78;0.75;;;15.50;74.70;;;;;;4191352;28;20456;-72
2021/12/02 02:42:08;;;;;;;3.13;1.05;;;15.50;74.50;;;;;;4174564;28;20056;-72
2021/12/02 02:44:33;;;;;;;4.45;0.75;;;15.50;74.20;;;;;;4174227;28;20485;-72
2021/12/02 02:46:55;;;;;;;2.63;0.70;;;15.50;74.00;;;;;;4186450;28;20056;-72
2021/12/02 02:49:18;;;;;;;3.63;0.98;;;15.50;74.00;;;;;;4168688;28;20532;-72
2021/12/02 02:51:44;;;;;;;1.38;0.70;;;15.60;74.20;;;;;;4190629;28;20048;-72
2021/12/02 02:54:10;;;;;;;2.65;0.70;;;15.60;73.80;;;;;;4191002;28;20428;-72
2021/12/02 02:56:37;;;;;;;2.72;0.70;;;15.60;73.30;;;;;;4182326;28;20075;-72
2021/12/02 02:59:08;;;;;;;2.42;0.55;;;15.60;70.80;;;;;;4174724;28;20052;-72
2021/12/02 03:01:46;;;;;;;2.65;0.47;;;15.60;72.40;;;;;;4174829;28;20079;-72
2021/12/02 03:04:23;;;;;;;5.57;1.00;;;15.60;73.40;;;;;;4174530;28;20061;-72
2021/12/02 03:06:51;;;;;;;2.78;0.70;;;15.60;73.30;;;;;;4183557;28;20044;-73
2021/12/02 03:09:21;;;;;;;2.53;0.80;;;15.60;73.40;;;;;;4190634;28;20052;-72
2021/12/02 03:11:47;;;;;;;2.20;0.63;;;15.50;73.40;;;;;;4191242;28;20463;-72
2021/12/02 03:14:16;;;;;;;2.05;0.40;;;15.50;74.10;;;;;;4188483;28;20131;-73
2021/12/02 03:16:44;;;;;;;3.30;0.73;;;15.50;74.20;;;;;;4185615;28;20450;-72
2021/12/02 03:19:06;;;;;;;4.55;0.80;;;15.50;74.10;;;;;;4190268;28;20173;-72
2021/12/02 03:21:29;;;;;;;1.38;0.50;;;15.50;74.10;;;;;;4174840;28;20040;-75
2021/12/02 03:23:53;;;;;;;1.73;0.60;;;15.50;74.00;;;;;;4174348;28;20057;-74
2021/12/02 03:26:16;;;;;;;0.82;0.73;;;15.60;74.10;;;;;;4174084;28;20056;-74
2021/12/02 03:28:38;;;;;;;0.65;0.50;;;15.50;74.00;;;;;;4173877;28;20106;-74
2021/12/02 03:31:02;;;;;;;1.17;0.55;;;15.50;74.00;;;;;;4175466;28;20053;-74
2021/12/02 03:33:24;;;;;;;1.92;0.40;;;15.50;74.00;;;;;;4185768;28;20048;-75
2021/12/02 03:35:47;;;;;;;2.38;0.70;;;15.50;74.30;;;;;;4189488;28;20052;-75
2021/12/02 03:38:22;;;;;;;5.10;0.75;;;15.50;74.80;;;;;;4174193;28;20488;-76
2021/12/02 03:40:44;;;;;;;1.48;0.52;;;15.60;75.10;;;;;;4181006;28;20503;-74
2021/12/02 03:43:08;;;;;;;1.67;0.50;;;15.70;74.70;;;;;;4185211;28;20049;-76
2021/12/02 03:45:42;;;;;;;0.73;0.50;;;15.80;74.00;;;;;;4186996;28;20052;-75
2021/12/02 03:48:05;;;;;;;2.35;0.40;;;15.90;73.70;;;;;;4192652;28;20139;-74
2021/12/02 03:50:27;;;;;;;2.15;0.45;;;15.90;73.50;;;;;;4193457;28;20470;-75
2021/12/02 03:52:49;;;;;;;0.73;0.38;;;15.90;73.30;;;;;;4185954;28;20044;-75
2021/12/02 03:55:12;;;;;;;1.92;0.40;;;16.00;73.10;;;;;;4177180;28;20171;-73
2021/12/02 03:57:34;;;;;;;0.70;0.32;;;16.00;73.00;;;;;;4176460;28;20049;-73
2021/12/02 03:59:57;;;;;;;2.15;0.47;;;16.00;72.90;;;;;;4183839;28;20053;-73
2021/12/02 04:02:19;;;;;;;2.05;0.40;;;16.00;73.70;;;;;;4190352;28;20488;-73
2021/12/02 04:04:41;;;;;;;2.08;0.40;;;16.00;72.90;;;;;;4170326;28;20052;-73
2021/12/02 04:07:04;;;;;;;1.90;0.50;;;15.90;72.80;;;;;;4177210;28;20060;-73
2021/12/02 04:09:34;;;;;;;0.95;0.60;;;15.90;72.90;;;;;;4177196;28;20118;-73
2021/12/02 04:12:00;;;;;;;0.45;0.22;;;15.90;72.90;;;;;;4163384;28;20493;-74
2021/12/02 04:14:25;;;;;;;1.70;0.30;;;15.90;74.10;;;;;;4186621;28;20091;-71
2021/12/02 04:16:58;;;;;;;1.40;0.40;;;15.90;73.40;;;;;;4193255;28;20044;-74
2021/12/02 04:19:22;;;;;;;0.47;0.25;;;15.90;73.00;;;;;;4188872;28;20132;-71
2021/12/02 04:21:44;;;;;;;1.73;0.30;;;15.90;73.00;;;;;;4155074;28;20057;-71
2021/12/02 04:24:06;;;;;;;0.30;0.10;;;15.90;73.00;;;;;;4176265;28;20045;-74
2021/12/02 04:26:29;;;;;;;0.93;0.20;;;15.80;72.80;;;;;;4176759;28;20127;-71
2021/12/02 04:28:51;;;;;;;1.05;0.50;;;15.80;67.00;;;;;;4171183;28;20485;-73
2021/12/02 04:31:13;;;;;;;3.13;0.70;;;15.80;70.60;;;;;;4161980;28;20480;-73
2021/12/02 04:33:36;;;;;;;0.32;0.25;;;15.90;72.30;;;;;;4176553;28;20048;-73
2021/12/02 04:35:59;;;;;;;0.47;0.25;;;15.90;71.90;;;;;;4176652;28;20048;-73
2021/12/02 04:38:21;;;;;;;0.20;0.20;;;16.00;68.60;;;;;;4176641;28;20052;-74
2021/12/02 04:40:43;;;;;;;0.25;0.20;;;16.00;68.10;;;;;;4176010;28;20045;-73
2021/12/02 04:43:06;;;;;;;0.10;0.10;;;16.00;70.00;;;;;;4176840;28;20040;-73
2021/12/02 04:45:28;;;;;;;0.35;0.30;;;16.00;71.00;;;;;;4176420;28;20060;-73
2021/12/02 04:47:50;;;;;;;0.38;0.20;;;15.90;71.50;;;;;;4187543;28;20468;-73
2021/12/02 04:50:13;;;;;;;0.50;0.20;;;15.90;71.80;;;;;;4192438;28;20487;-74
2021/12/02 04:52:36;;;;;;;0.55;0.20;;;15.80;71.90;;;;;;4183164;28;20118;-73
2021/12/02 04:54:58;;;;;;;0.60;0.30;;;15.80;72.70;;;;;;4176383;28;20251;-73
2021/12/02 04:57:20;;;;;;;0.10;0.10;;;15.70;70.90;;;;;;4176710;28;20357;-73
2021/12/02 04:59:42;;;;;;;0.75;0.30;;;15.70;70.60;;;;;;4188444;28;20048;-74
2021/12/02 05:02:04;;;;;;;0.30;0.20;;;15.70;71.60;;;;;;4186142;28;20048;-74
2021/12/02 05:04:27;;;;;;;1.02;0.45;;;15.60;72.30;;;;;;4175325;28;20164;-73
2021/12/02 05:06:51;;;;;;;0.75;0.10;;;15.60;72.90;;;;;;4170705;28;20057;-73
2021/12/02 05:09:13;;;;;;;2.03;0.20;;;15.60;73.30;;;;;;4176897;28;20432;-73
2021/12/02 05:11:35;;;;;;;0.82;0.40;;;15.60;73.30;;;;;;4178272;28;20518;-73
2021/12/02 05:13:57;;;;;;;0.20;0.20;;;15.60;73.20;;;;;;4178745;28;20056;-73
2021/12/02 05:16:20;;;;;;;2.30;0.50;;;15.60;73.10;;;;;;4160757;28;20120;-73
2021/12/02 05:18:42;;;;;;;0.30;0.10;;;15.60;73.20;;;;;;4182391;28;20044;-74
2021/12/02 05:21:04;;;;;;;0.50;0.47;;;15.60;73.60;;;;;;4191708;28;20048;-71
2021/12/02 05:23:28;;;;;;;0.57;0.40;;;15.70;74.70;;;;;;4176016;28;20055;-74
2021/12/02 05:25:50;;;;;;;2.55;0.55;;;15.80;73.50;;;;;;4170195;28;20083;-74
2021/12/02 05:28:15;;;;;;;0.90;0.38;;;15.90;73.10;;;;;;4175798;28;20044;-74
2021/12/02 05:30:36;;;;;;;0.30;0.30;;;16.00;72.50;;;;;;4176251;28;20160;-74
2021/12/02 05:32:59;;;;;;;5.53;0.90;;;16.10;72.00;;;;;;4191844;28;20529;-75
2021/12/02 05:35:21;;;;;;;2.42;0.55;;;16.20;71.70;;;;;;4192838;28;20133;-74
2021/12/02 05:37:43;;;;;;;0.40;0.32;;;16.20;71.40;;;;;;4186008;28;20499;-74
2021/12/02 05:40:08;;;;;;;0.30;0.20;;;16.20;71.30;;;;;;4192198;28;20531;-73
2021/12/02 05:42:30;;;;;;;0.40;0.30;;;16.20;71.00;;;;;;4192186;28;20122;-73
2021/12/02 05:44:53;;;;;;;0.50;0.25;;;16.20;71.10;;;;;;4192934;28;20148;-73
2021/12/02 05:47:15;;;;;;;0.98;0.30;;;16.10;70.90;;;;;;4191957;28;20051;-74
2021/12/02 05:49:37;;;;;;;1.70;0.30;;;16.10;71.30;;;;;;4176944;28;20500;-74
2021/12/02 05:51:59;;;;;;;0.75;0.30;;;16.00;72.40;;;;;;4189812;28;20131;-75
2021/12/02 05:54:21;;;;;;;1.40;0.65;;;16.00;72.00;;;;;;4175726;28;20049;-75
2021/12/02 05:56:44;;;;;;;1.30;0.32;;;16.10;72.70;;;;;;4175824;28;20052;-75
2021/12/02 05:59:06;;;;;;;0.80;0.20;;;16.10;71.50;;;;;;4175078;28;20033;-80
2021/12/02 06:01:28;;;;;;;1.30;0.38;;;16.10;71.40;;;;;;4173455;28;20570;-78
2021/12/02 06:03:51;;;;;;;1.45;0.30;;;16.10;71.40;;;;;;4170446;28;20465;-80
2021/12/02 06:06:15;;;;;;;1.45;0.45;;;16.10;71.40;;;;;;4187430;28;20136;-80
2021/12/02 06:08:37;;;;;;;1.60;0.40;;;16.10;71.30;;;;;;4175428;28;20483;-80
2021/12/02 06:10:59;;;;;;;0.98;0.40;;;16.10;71.80;;;;;;4190807;28;20480;-82
2021/12/02 06:13:24;;;;;;;0.47;0.47;;;16.20;71.70;;;;;;4192445;28;20131;-79
2021/12/02 06:15:47;;;;;;;2.30;0.55;;;16.20;71.30;;;;;;4192506;28;20055;-79
2021/12/02 06:18:09;;;;;;;0.90;0.50;;;16.30;71.90;;;;;;4192263;28;20400;-81
2021/12/02 06:20:34;;;;;;;1.92;0.32;;;16.30;70.60;;;;;;4170570;28;20045;-81
2021/12/02 06:22:56;;;;;;;0.90;0.43;;;16.30;70.60;;;;;;4175734;28;20060;-81
2021/12/02 06:27:56;;;;;;;1.95;0.75;;;16.30;70.60;;;;;;4159738;28;20456;-80
2021/12/02 06:30:20;;;;;;;1.23;0.75;;;16.30;70.80;;;;;;4186338;28;20044;-81
2021/12/02 06:32:42;;;;;;;0.52;0.52;;;16.30;70.50;;;;;;4191327;28;20040;-81
2021/12/02 06:35:06;;;;;;;1.17;0.57;;;16.30;70.50;;;;;;4191922;28;20419;-81
2021/12/02 06:37:28;;;;;;;0.80;0.40;;;16.30;70.60;;;;;;4192198;28;20036;-80
2021/12/02 06:39:50;;;;;;;1.92;0.65;;;16.20;70.90;;;;;;4191256;28;20052;-80
2021/12/02 06:42:12;;;;;;;1.80;0.55;;;16.20;71.10;;;;;;4192987;28;20396;-82
2021/12/02 06:44:35;;;;;;;0.40;0.40;;;16.30;71.10;;;;;;4193058;28;20122;-83
2021/12/02 06:46:58;;;;;;;2.03;1.10;;;16.30;70.70;;;;;;4192377;28;20389;-80
2021/12/02 06:49:20;;;;;;;1.42;0.70;;;16.30;70.40;;;;;;4181554;28;20048;-78
2021/12/02 06:51:42;;;;;;;0.63;0.60;;;16.20;70.60;;;;;;4168780;28;20122;-77
2021/12/02 06:54:04;;;;;;;0.60;0.50;;;16.20;70.70;;;;;;4174572;28;20465;-80
2021/12/02 06:56:44;;;;;;;2.30;0.80;;;16.20;70.90;;;;;;4175149;28;20048;-74
2021/12/02 06:59:06;;;;;;;2.03;0.75;;;16.20;70.90;;;;;;4160753;28;20053;-74
2021/12/02 07:01:28;;;;;;;2.60;0.90;;;16.10;71.00;;;;;;4174872;28;20036;-71
2021/12/02 07:03:51;;;;;;;1.25;0.75;;;16.10;71.60;;;;;;4160617;28;20064;-75
2021/12/02 07:06:13;;;;;;;1.40;0.70;;;16.00;72.10;;;;;;4191294;28;20139;-75
2021/12/02 07:08:35;;;;;;;1.75;0.50;;;16.10;72.20;;;;;;4208447;28;20055;-75
2021/12/02 07:10:59;;;;;;;2.55;0.73;;;16.00;72.30;;;;;;4173102;28;20047;-75
2021/12/02 07:13:21;;;;;;;0.68;0.60;;;16.00;72.30;;;;;;4185107;28;20044;-75
2021/12/02 07:15:50;;;;;;;0.85;0.50;;;16.00;72.20;;;;;;4190546;28;20044;-76
2021/12/02 07:18:15;;;;;;;4.93;1.30;;;16.00;72.40;;;;;;4193454;28;20482;-75
2021/12/02 07:20:40;;;;;;;1.08;0.60;;;16.00;72.70;;;;;;4178288;28;20120;-74
2021/12/02 07:23:03;;;;;;;0.98;0.70;;;15.90;72.40;;;;;;4182334;28;20045;-75
2021/12/02 07:25:25;;;;;;;0.70;0.52;;;15.90;72.30;;;;;;4177871;28;20551;-74
2021/12/02 07:27:48;;;;;;;1.73;0.63;;;15.90;72.50;;;;;;4181775;28;20123;-74
2021/12/02 07:30:11;;;;;;;0.80;0.80;;;15.80;72.70;;;;;;4181225;28;20075;-74
2021/12/02 07:32:36;;;;;;;1.25;0.70;;;15.70;73.00;;;;;;4185108;28;20071;-74
2021/12/02 07:35:03;;;;;;;3.03;0.80;;;15.80;73.60;;;;;;4179151;28;20052;-74
2021/12/02 07:37:27;;;;;;;2.15;0.80;;;15.90;74.00;;;;;;4189470;28;20153;-74
2021/12/02 07:39:50;;;;;;;1.98;0.50;;;16.10;73.40;;;;;;4184682;28;20098;-74
2021/12/02 07:42:20;;;;;;;1.55;0.70;;;16.50;72.00;;;;;;4176397;28;20049;-74
2021/12/02 07:44:42;;;;;;;2.15;0.75;;;16.90;70.10;;;;;;4179803;28;20052;-74
2021/12/02 07:47:07;;;;;;;1.88;0.68;;;17.40;68.30;;;;;;4178919;28;20453;-73
2021/12/02 07:49:29;;;;;;;1.55;1.00;;;17.80;66.50;;;;;;4188193;28;20504;-74
2021/12/02 07:51:53;;;;;;;1.88;0.93;;;18.20;64.80;;;;;;4181791;28;20049;-74
2021/12/02 07:54:18;;;;;;;1.10;0.70;;;18.40;63.50;;;;;;4180799;28;20061;-75
2021/12/02 07:56:40;;;;;;;3.20;1.27;;;18.60;62.70;;;;;;4179826;28;20052;-75
2021/12/02 07:59:03;;;;;;;0.88;0.85;;;18.80;62.10;;;;;;4174736;28;20049;-75
2021/12/02 08:01:24;;;;;;;3.50;1.00;;;18.80;61.60;;;;;;4179443;28;20045;-75
2021/12/02 08:03:47;;;;;;;2.83;0.90;;;18.90;61.50;;;;;;4176431;28;20063;-75
2021/12/02 08:06:10;;;;;;;0.68;0.52;;;18.80;61.40;;;;;;4172543;28;20060;-75
2021/12/02 08:08:32;;;;;;;3.50;1.10;;;18.80;61.60;;;;;;4174916;28;20053;-76
2021/12/02 08:10:56;;;;;;;1.48;0.60;;;18.70;61.90;;;;;;4177900;28;20511;-76
2021/12/02 08:13:18;;;;;;;2.03;0.75;;;18.60;62.20;;;;;;4183462;28;20059;-76
2021/12/02 08:15:41;;;;;;;1.75;0.63;;;18.40;62.70;;;;;;4167798;28;20464;-75
2021/12/02 08:18:04;;;;;;;1.15;0.85;;;18.40;63.20;;;;;;4182578;28;20056;-75
2021/12/02 08:20:27;;;;;;;4.88;0.90;;;18.30;63.40;;;;;;4182957;28;20059;-75
2021/12/02 08:22:50;;;;;;;1.23;1.00;;;18.30;63.60;;;;;;4184376;28;20528;-75
2021/12/02 08:25:13;;;;;;;1.75;0.88;;;18.30;63.60;;;;;;4179843;28;20052;-76
2021/12/02 08:27:37;;;;;;;3.35;0.80;;;18.30;63.60;;;;;;4177026;28;20048;-76
2021/12/02 08:30:02;;;;;;;1.50;0.93;;;18.40;63.50;;;;;;4177045;28;20130;-77
2021/12/02 08:32:24;;;;;;;1.77;0.95;;;18.30;63.50;;;;;;4172645;28;20052;-77
2021/12/02 08:34:46;;;;;;;2.15;0.65;;;18.30;63.60;;;;;;4182488;28;20452;-76
2021/12/02 08:37:12;;;;;;;1.90;0.60;;;18.30;63.70;;;;;;4175845;28;20049;-77
2021/12/02 08:39:34;;;;;;;0.95;0.60;;;18.20;63.80;;;;;;4180473;28;20051;-76
2021/12/02 08:41:57;;;;;;;1.20;0.52;;;18.10;64.00;;;;;;4184268;28;20048;-75
2021/12/02 08:44:25;;;;;;;0.60;0.60;;;18.10;64.40;;;;;;4182195;28;20059;-74
2021/12/02 08:46:48;;;;;;;2.10;0.70;;;18.10;64.50;;;;;;4186892;28;20131;-77
2021/12/02 08:49:11;;;;;;;6.70;1.00;;;18.10;64.50;;;;;;4183734;28;20051;-75
2021/12/02 08:51:33;;;;;;;0.77;0.57;;;18.10;64.50;;;;;;4180600;28;20376;-75
2021/12/02 08:53:55;;;;;;;0.95;0.57;;;18.00;64.60;;;;;;4174208;28;20149;-76
2021/12/02 08:56:17;;;;;;;2.15;0.65;;;17.90;65.00;;;;;;4160792;28;20600;-76
2021/12/02 08:58:40;;;;;;;1.40;0.70;;;17.80;65.40;;;;;;4189497;28;20055;-75
2021/12/02 09:01:04;;;;;;;0.80;0.80;;;17.80;65.60;;;;;;4188614;28;20055;-75
2021/12/02 09:03:29;;;;;;;0.75;0.70;;;17.80;65.60;;;;;;4174032;28;20067;-75
2021/12/02 09:05:52;;;;;;;1.70;0.90;;;17.90;65.60;;;;;;4185465;28;20056;-75
2021/12/02 09:08:19;;;;;;;1.48;0.70;;;17.90;65.50;;;;;;4162888;28;20052;-76
2021/12/02 09:10:41;;;;;;;1.58;0.82;;;17.90;65.30;;;;;;4186950;28;20140;-72
2021/12/02 09:13:07;;;;;;;1.92;0.82;;;17.90;65.80;;;;;;4185934;28;20047;-64
2021/12/02 09:15:30;;;;;;;2.20;0.98;;;17.90;65.50;;;;;;4179798;28;20045;-59
2021/12/02 09:17:53;;;;;;;1.42;0.90;;;17.90;65.90;;;;;;4181539;28;20471;-59
2021/12/02 09:20:16;;;;;;;1.55;0.93;;;17.80;66.10;;;;;;4175207;28;20053;-59
2021/12/02 09:22:39;;;;;;;3.40;0.82;;;17.70;66.10;;;;;;4180391;28;20484;-58
2021/12/02 09:25:01;;;;;;;1.42;0.90;;;17.60;66.80;;;;;;4174811;28;20072;-59
2021/12/02 09:27:23;;;;;;;1.77;0.65;;;17.60;67.80;;;;;;4174376;28;20399;-59
2021/12/02 09:29:46;;;;;;;2.50;0.77;;;17.60;66.60;;;;;;4185291;28;20052;-59
2021/12/02 09:32:11;;;;;;;0.65;0.50;;;17.60;66.70;;;;;;4189852;28;20658;-59
2021/12/02 09:34:34;;;;;;;1.08;0.68;;;17.70;66.60;;;;;;4179782;28;20045;-59
2021/12/02 09:36:56;;;;;;;2.65;0.55;;;17.70;67.10;;;;;;4175188;28;20052;-58
2021/12/02 09:39:19;;;;;;;1.58;0.50;;;17.80;66.80;;;;;;4173302;28;20045;-58
2021/12/02 09:41:41;;;;;;;1.23;0.50;;;17.90;66.10;;;;;;4165740;28;20049;-58
2021/12/02 09:44:05;;;;;;;0.98;0.30;;;17.90;65.80;;;;;;4173875;28;20072;-58
2021/12/02 09:46:27;;;;;;;0.90;0.55;;;17.80;65.90;;;;;;4174656;28;20413;-58
2021/12/02 09:48:49;;;;;;;1.25;0.60;;;17.80;66.00;;;;;;4173648;28;20086;-58
2021/12/02 09:51:16;;;;;;;0.73;0.40;;;17.70;65.90;;;;;;4181134;28;20049;-58
2021/12/02 09:54:05;;;;;;;1.17;0.63;;;17.50;65.50;;;;;;4174772;28;20053;-59
2021/12/02 09:56:30;;;;;;;3.08;0.43;;;17.40;65.30;;;;;;4175684;28;20103;-58
2021/12/02 09:58:55;;;;;;;1.10;0.25;;;17.30;64.40;;;;;;4175100;28;20443;-59
2021/12/02 10:01:21;;;;;;;0.52;0.40;;;17.20;66.40;;;;;;4173821;28;20140;-58
2021/12/02 10:03:45;;;;;;;1.67;0.22;;;17.10;65.90;;;;;;4176891;28;20124;-59
2021/12/02 10:06:10;;;;;;;1.05;0.50;;;17.00;66.60;;;;;;4188621;28;20068;-58
2021/12/02 10:08:45;;;;;;;2.42;0.43;;;16.90;68.30;;;;;;4174428;28;20049;-58
2021/12/02 10:11:10;;;;;;;1.38;0.80;;;16.90;67.80;;;;;;4173941;28;20048;-58
2021/12/02 10:13:39;;;;;;;2.38;0.40;;;16.90;69.30;;;;;;4175601;28;20060;-59
2021/12/02 10:16:17;;;;;;;0.35;0.30;;;17.00;68.40;;;;;;4189250;28;20515;-58
2021/12/02 10:18:50;;;;;;;1.20;0.60;;;17.00;68.40;;;;;;4181399;28;20060;-58
2021/12/02 10:21:21;;;;;;;1.48;0.50;;;17.10;68.60;;;;;;4180435;28;20595;-58
2021/12/02 10:23:47;;;;;;;0.52;0.50;;;17.00;68.40;;;;;;4172949;28;20108;-59
2021/12/02 10:26:10;;;;;;;1.02;0.52;;;17.10;68.50;;;;;;4189623;28;20143;-59
2021/12/02 10:28:41;;;;;;;1.63;0.57;;;17.10;68.70;;;;;;4189294;28;20045;-58
2021/12/02 10:31:05;;;;;;;0.60;0.55;;;17.10;68.70;;;;;;4186662;28;20044;-58
2021/12/02 10:33:32;;;;;;;0.40;0.40;;;17.00;69.20;;;;;;4181383;28;20056;-58
2021/12/02 10:35:55;;;;;;;0.95;0.60;;;17.10;68.90;;;;;;4185471;28;20192;-59
2021/12/02 10:38:34;;;;;;;3.05;0.73;;;17.20;68.90;;;;;;4173611;28;20480;-59
2021/12/02 10:41:03;;;;;;;1.05;0.80;;;17.30;67.90;;;;;;4173866;28;20049;-59
2021/12/02 10:43:25;;;;;;;2.67;0.65;;;17.30;68.00;;;;;;4188833;28;20193;-59
2021/12/02 10:45:47;;;;;;;1.58;1.48;;;17.30;68.50;;;;;;4188702;28;20553;-58
2021/12/02 10:48:09;;;;;;;0.52;0.52;;;17.30;67.00;;;;;;4173441;28;20056;-59
2021/12/02 10:50:39;;;;;;;0.70;0.38;;;17.40;68.10;;;;;;4179183;28;20133;-60
2021/12/02 10:53:04;;;;;;;0.95;0.38;;;17.30;67.50;;;;;;4172820;28;20049;-60
2021/12/02 10:55:28;;;;;;;0.38;0.30;;;17.30;67.80;;;;;;4173353;28;20053;-59
2021/12/02 10:57:54;;;;;;;0.68;0.47;;;17.20;68.80;;;;;;4173692;28;20068;-59
2021/12/02 11:00:19;;;;;;;0.77;0.40;;;17.20;68.40;;;;;;4173395;28;20726;-59
2021/12/02 11:02:46;;;;;;;0.55;0.47;;;17.10;68.40;;;;;;4162153;28;20497;-59
2021/12/02 11:05:18;;;;;;;0.77;0.30;;;17.10;68.50;;;;;;4162839;28;20152;-58
2021/12/02 11:07:42;;;;;;;0.30;0.30;;;17.00;68.60;;;;;;4156147;28;20391;-59
2021/12/02 11:10:06;;;;;;;1.75;0.45;;;16.90;69.50;;;;;;4156813;28;20081;-59
2021/12/02 11:12:30;;;;;;;0.82;0.30;;;16.90;69.50;;;;;;4160472;28;20131;-59
2021/12/02 11:15:00;;;;;;;1.17;0.60;;;16.90;69.30;;;;;;4169444;28;20045;-59
2021/12/02 11:17:29;;;;;;;0.70;0.40;;;16.90;69.00;;;;;;4157069;28;20073;-59
2021/12/02 11:19:52;;;;;;;0.63;0.32;;;16.90;67.50;;;;;;4157113;28;20058;-59
2021/12/02 11:22:18;;;;;;;1.85;0.40;;;17.00;67.00;;;;;;4171501;28;20049;-59
2021/12/02 11:24:41;;;;;;;0.40;0.40;;;17.10;67.60;;;;;;4143611;28;20092;-60
2021/12/02 11:27:12;;;;;;;0.93;0.50;;;17.10;67.70;;;;;;4145645;28;20054;-59
2021/12/02 11:29:59;;;;;;;1.05;0.50;;;17.20;67.30;;;;;;4164650;28;20042;-59
2021/12/02 11:32:33;;;;;;;0.70;0.30;;;17.20;67.40;;;;;;4167247;28;20053;-59
2021/12/02 11:35:09;;;;;;;2.25;1.60;;;17.20;67.50;;;;;;4159624;28;20056;-59
2021/12/02 11:37:33;;;;;;;0.90;0.60;;;17.30;67.10;;;;;;4158844;28;20069;-59
2021/12/02 11:39:58;;;;;;;1.13;0.35;;;17.20;67.70;;;;;;4172069;28;20063;-59
2021/12/02 11:42:20;;;;;;;1.67;0.50;;;17.20;68.00;;;;;;4166188;28;20057;-59
2021/12/02 11:44:43;;;;;;;1.23;0.50;;;17.10;68.50;;;;;;4163856;28;20056;-61
2021/12/02 11:47:07;;;;;;;0.68;0.30;;;17.10;68.80;;;;;;4158930;28;20057;-60
2021/12/02 11:49:29;;;;;;;0.70;0.70;;;17.00;68.20;;;;;;4158529;28;20088;-59
2021/12/02 11:51:51;;;;;;;4.00;3.80;;;17.10;66.50;;;;;;4158300;28;20716;-60
2021/12/02 11:54:13;;;;;;;1.70;1.70;;;17.00;63.10;;;;;;4160573;28;20048;-59
2021/12/02 11:56:35;;;;;;;1.08;0.50;;;16.90;65.30;;;;;;4162037;28;20041;-60
2021/12/02 11:58:58;;;;;;;0.28;0.20;;;16.90;65.50;;;;;;4161785;28;20151;-59
2021/12/02 12:01:24;;;;;;;0.10;0.10;;;16.80;66.20;;;;;;4165215;28;20045;-59
2021/12/02 12:03:50;;;;;;;0.45;0.40;;;16.80;67.70;;;;;;4167030;28;20050;-59
2021/12/02 12:06:23;;;;;;;0.30;0.30;;;16.80;69.20;;;;;;4176939;28;20059;-65
2021/12/02 12:08:49;;;;;;;0.47;0.28;;;16.80;69.70;;;;;;4160125;28;20485;-66
2021/12/02 12:11:23;;;;;;;1.25;0.70;;;16.90;71.00;;;;;;4178548;28;20044;-62
2021/12/02 12:13:47;;;;;;;0.40;0.40;;;17.10;69.00;;;;;;4176805;28;20601;-60
2021/12/02 12:16:21;;;;;;;2.40;1.60;;;17.10;68.50;;;;;;4181547;28;20052;-60
2021/12/02 12:18:43;;;;;;;0.40;0.40;;;17.20;65.90;;;;;;4184178;28;20136;-59
2021/12/02 12:21:09;;;;;;;1.25;0.40;;;17.10;60.00;;;;;;4190839;28;20071;-59
2021/12/02 12:23:34;;;;;;;0.32;0.30;;;17.00;61.40;;;;;;4190950;28;20048;-61
2021/12/02 12:26:29;;;;;;;0.88;0.88;;;17.00;64.30;;;;;;4184644;28;20151;-59
2021/12/02 12:29:28;;;;;;;0.40;0.40;;;16.80;65.80;;;;;;4186874;28;20127;-60
2021/12/02 12:32:31;;;;;;;3.92;0.40;;;16.70;68.20;;;;;;4180468;28;20387;-59
2021/12/02 12:35:01;;;;;;;0.30;0.30;;;16.70;68.90;;;;;;4185780;28;20080;-60
2021/12/02 12:37:48;;;;;;;0.30;0.30;;;16.70;70.20;;;;;;4178423;28;20067;-59
2021/12/02 12:40:13;;;;;;;0.60;0.60;;;16.70;70.10;;;;;;4175275;28;20350;-61